createdAt,value
2023-05-05T00:02:11.404Z,98076.59
2023-05-05T00:04:37.902Z,98072.28
2023-05-05T00:07:04.437Z,98071.88
2023-05-05T00:09:30.970Z,98067.84
2023-05-05T00:11:57.442Z,98062.78
2023-05-05T00:14:23.978Z,98067.25
2023-05-05T00:16:50.517Z,98066.31
2023-05-05T00:19:16.992Z,98063.66
2023-05-05T00:21:43.536Z,98058.94
2023-05-05T00:24:10.163Z,98067.50
2023-05-05T00:26:36.635Z,98059.19
2023-05-05T00:29:03.479Z,98062.81
2023-05-05T00:31:29.938Z,98065.19
2023-05-05T00:33:56.385Z,98073.78
2023-05-05T00:36:22.937Z,98070.22
2023-05-05T00:38:49.384Z,98067.41
2023-05-05T00:41:15.954Z,98067.84
2023-05-05T00:43:42.581Z,98066.19
2023-05-05T00:46:29.566Z,98062.19
2023-05-05T00:48:56.452Z,98057.28
2023-05-05T00:51:23.265Z,98053.03
2023-05-05T00:53:49.876Z,98054.84
2023-05-05T00:56:21.887Z,98055.41
2023-05-05T00:58:49.071Z,98053.97
2023-05-05T01:01:16.487Z,98053.72
2023-05-05T01:03:43.313Z,98049.22
2023-05-05T01:06:34.822Z,98044.97
2023-05-05T01:09:12.143Z,98038.19
2023-05-05T01:11:42.753Z,98041.66
2023-05-05T01:14:19.333Z,98035.47
2023-05-05T01:17:20.190Z,98044.25
2023-05-05T01:20:17.433Z,98051.56
2023-05-05T01:22:47.229Z,98047.88
2023-05-05T01:25:49.340Z,98045.31
2023-05-05T01:28:31.473Z,98047.34
2023-05-05T01:31:01.653Z,98042.06
2023-05-05T01:33:29.477Z,98034.91
2023-05-05T01:35:57.779Z,98042.63
2023-05-05T01:38:31.895Z,98043.41
2023-05-05T01:41:10.505Z,98043.94
2023-05-05T01:43:37.012Z,98038.66
2023-05-05T01:46:03.503Z,98037.69
2023-05-05T01:48:30.064Z,98040.22
2023-05-05T01:50:56.601Z,98040.22
2023-05-05T01:53:23.267Z,98040.47
2023-05-05T01:55:49.904Z,98038.97
2023-05-05T01:58:16.864Z,98034.59
2023-05-05T02:00:43.987Z,98036.16
2023-05-05T02:03:11.593Z,98031.25
2023-05-05T02:05:39.154Z,98037.34
2023-05-05T02:08:05.769Z,98035.97
2023-05-05T02:10:32.364Z,98030.03
2023-05-05T02:12:59.820Z,98039.56
2023-05-05T02:15:26.318Z,98044.63
2023-05-05T02:17:53.107Z,98054.09
2023-05-05T02:20:19.950Z,98049.72
2023-05-05T02:22:46.555Z,98040.75
2023-05-05T02:25:13.092Z,98047.22
2023-05-05T02:27:41.654Z,98052.78
2023-05-05T02:30:09.598Z,98051.31
2023-05-05T02:32:49.707Z,98047.13
2023-05-05T02:35:24.251Z,98050.03
2023-05-05T02:37:51.573Z,98046.91
2023-05-05T02:40:19.932Z,98049.53
2023-05-05T02:42:46.587Z,98041.34
2023-05-05T02:45:15.372Z,98045.03
2023-05-05T02:47:41.912Z,98044.03
2023-05-05T02:50:09.017Z,98041.34
2023-05-05T02:52:35.703Z,98045.25
2023-05-05T02:55:02.756Z,98042.31
2023-05-05T02:57:37.746Z,98041.88
2023-05-05T03:00:32.110Z,98044.66
2023-05-05T03:03:17.739Z,98038.03
2023-05-05T03:06:04.519Z,98040.66
2023-05-05T03:08:46.973Z,98042.56
2023-05-05T03:11:31.441Z,98038.19
2023-05-05T03:14:10.822Z,98039.66
2023-05-05T03:16:37.388Z,98038.03
2023-05-05T03:19:04.206Z,98036.00
2023-05-05T03:21:31.787Z,98032.81
2023-05-05T03:23:58.661Z,98035.75
2023-05-05T03:26:25.146Z,98037.88
2023-05-05T03:28:51.742Z,98041.66
2023-05-05T03:31:18.572Z,98044.75
2023-05-05T03:33:45.077Z,98040.84
2023-05-05T03:36:11.668Z,98048.50
2023-05-05T03:38:38.150Z,98054.69
2023-05-05T03:41:04.625Z,98046.66
2023-05-05T03:43:31.132Z,98050.06
2023-05-05T03:45:57.629Z,98059.31
2023-05-05T03:48:24.235Z,98052.63
2023-05-05T03:50:50.729Z,98055.28
2023-05-05T03:53:17.246Z,98052.03
2023-05-05T03:55:43.720Z,98051.22
2023-05-05T03:58:11.081Z,98047.22
2023-05-05T04:00:37.598Z,98048.34
2023-05-05T04:03:04.282Z,98046.84
2023-05-05T04:05:31.025Z,98044.69
2023-05-05T04:07:58.288Z,98048.81
2023-05-05T04:10:24.795Z,98048.34
2023-05-05T04:12:51.331Z,98043.06
2023-05-05T04:15:17.924Z,98042.31
2023-05-05T04:17:44.448Z,98053.31
2023-05-05T04:20:11.305Z,98049.91
2023-05-05T04:22:37.873Z,98042.31
2023-05-05T04:25:04.636Z,98046.25
2023-05-05T04:27:31.395Z,98040.53
2023-05-05T04:29:57.882Z,98037.75
2023-05-05T04:32:24.446Z,98043.22
2023-05-05T04:34:51.004Z,98041.00
2023-05-05T04:37:17.463Z,98046.63
2023-05-05T04:39:44.024Z,98051.66
2023-05-05T04:42:10.674Z,98052.28
2023-05-05T04:44:37.141Z,98056.47
2023-05-05T04:47:04.056Z,98054.16
2023-05-05T04:49:30.997Z,98053.75
2023-05-05T04:51:57.467Z,98049.78
2023-05-05T04:54:23.959Z,98045.22
2023-05-05T04:56:50.513Z,98051.91
2023-05-05T04:59:17.015Z,98041.91
2023-05-05T05:01:43.539Z,98051.63
2023-05-05T05:04:10.864Z,98054.16
2023-05-05T05:06:37.328Z,98054.69
2023-05-05T05:09:03.878Z,98060.44
2023-05-05T05:11:30.528Z,98053.91
2023-05-05T05:13:56.984Z,98063.91
2023-05-05T05:16:24.892Z,98055.47
2023-05-05T05:18:51.455Z,98059.78
2023-05-05T05:21:17.889Z,98055.06
2023-05-05T05:23:44.366Z,98064.13
2023-05-05T05:26:11.018Z,98064.22
2023-05-05T05:28:37.502Z,98059.63
2023-05-05T05:31:04.753Z,98063.34
2023-05-05T05:33:31.274Z,98061.38
2023-05-05T05:35:57.909Z,98061.59
2023-05-05T05:38:24.394Z,98063.75
2023-05-05T05:40:50.920Z,98067.59
2023-05-05T05:43:17.412Z,98071.72
2023-05-05T05:45:43.891Z,98067.50
2023-05-05T05:48:10.642Z,98067.84
2023-05-05T05:50:37.308Z,98072.38
2023-05-05T05:53:03.866Z,98070.22
2023-05-05T05:55:30.432Z,98068.72
2023-05-05T05:57:56.951Z,98066.47
2023-05-05T06:00:23.639Z,98065.81
2023-05-05T06:02:51.601Z,98060.13
2023-05-05T06:05:18.165Z,98065.56
2023-05-05T06:07:44.653Z,98063.75
2023-05-05T06:10:22.963Z,98062.53
2023-05-05T06:12:52.890Z,98059.00
2023-05-05T06:15:19.439Z,98055.63
2023-05-05T06:17:46.059Z,98056.94
2023-05-05T06:20:13.842Z,98048.72
2023-05-05T06:22:40.735Z,98047.47
2023-05-05T06:25:07.503Z,98041.56
2023-05-05T06:27:33.961Z,98044.31
2023-05-05T06:30:00.716Z,98054.91
2023-05-05T06:32:27.238Z,98044.38
2023-05-05T06:34:53.727Z,98044.41
2023-05-05T06:37:20.529Z,98041.97
2023-05-05T06:39:47.133Z,98038.88
2023-05-05T06:42:13.664Z,98042.09
2023-05-05T06:44:40.251Z,98054.31
2023-05-05T06:47:06.907Z,98056.25
2023-05-05T06:49:33.738Z,98060.38
2023-05-05T06:52:00.403Z,98068.78
2023-05-05T06:54:26.867Z,98065.16
2023-05-05T06:56:53.328Z,98070.81
2023-05-05T06:59:19.935Z,98079.75
2023-05-05T07:01:46.437Z,98074.19
2023-05-05T07:04:13.023Z,98080.13
2023-05-05T07:06:39.804Z,98087.50
2023-05-05T07:09:06.608Z,98082.59
2023-05-05T07:11:33.075Z,98088.63
2023-05-05T07:13:59.597Z,98077.91
2023-05-05T07:16:27.126Z,98076.75
2023-05-05T07:18:53.642Z,98071.47
2023-05-05T07:21:20.411Z,98065.56
2023-05-05T07:23:47.695Z,98063.19
2023-05-05T07:26:14.830Z,98057.00
2023-05-05T07:28:43.034Z,98050.25
2023-05-05T07:31:09.606Z,98047.31
2023-05-05T07:33:36.210Z,98040.31
2023-05-05T07:36:02.828Z,98043.31
2023-05-05T07:38:29.309Z,98035.84
2023-05-05T07:40:55.874Z,98032.75
2023-05-05T07:43:22.413Z,98038.97
2023-05-05T07:45:48.979Z,98032.47
2023-05-05T07:48:15.509Z,98025.53
2023-05-05T07:50:42.190Z,98027.03
2023-05-05T07:53:14.648Z,98028.41
2023-05-05T07:55:41.857Z,98023.41
2023-05-05T07:58:08.569Z,98033.16
2023-05-05T08:00:35.512Z,98024.28
2023-05-05T08:03:02.085Z,98031.47
2023-05-05T08:05:28.677Z,98036.44
2023-05-05T08:07:55.135Z,98033.19
2023-05-05T08:10:24.834Z,98024.66
2023-05-05T08:12:51.496Z,98028.41
2023-05-05T08:15:18.079Z,98021.31
2023-05-05T08:17:48.749Z,98016.22
2023-05-05T08:20:16.472Z,98014.53
2023-05-05T08:22:43.063Z,98017.03
2023-05-05T08:25:11.040Z,98017.88
2023-05-05T08:27:38.729Z,98020.75
2023-05-05T08:30:06.671Z,98021.19
2023-05-05T08:32:33.214Z,98016.22
2023-05-05T08:35:01.517Z,98014.34
2023-05-05T08:37:27.971Z,98019.34
2023-05-05T08:39:56.485Z,98008.34
2023-05-05T08:42:36.042Z,98015.22
2023-05-05T08:45:05.625Z,98014.34
2023-05-05T08:47:32.506Z,98009.22
2023-05-05T08:49:58.979Z,98003.41
2023-05-05T08:52:25.451Z,98007.31
2023-05-05T08:54:57.792Z,98003.38
2023-05-05T08:57:28.466Z,98004.63
2023-05-05T08:59:55.025Z,98008.75
2023-05-05T09:02:23.937Z,98008.72
2023-05-05T09:04:51.807Z,98005.63
2023-05-05T09:07:18.255Z,97996.31
2023-05-05T09:09:44.741Z,97998.59
2023-05-05T09:12:11.226Z,98005.19
2023-05-05T09:14:37.672Z,97998.47
2023-05-05T09:17:04.383Z,97989.97
2023-05-05T09:19:30.931Z,97990.75
2023-05-05T09:21:57.510Z,97997.09
2023-05-05T09:24:24.067Z,97992.50
2023-05-05T09:26:51.809Z,97995.19
2023-05-05T09:29:21.799Z,97992.31
2023-05-05T09:32:09.068Z,97989.25
2023-05-05T09:34:36.055Z,97992.66
2023-05-05T09:37:03.230Z,97995.50
2023-05-05T09:39:29.794Z,97995.94
2023-05-05T09:41:56.294Z,98001.75
2023-05-05T09:44:36.093Z,97990.63
2023-05-05T09:47:05.252Z,97990.28
2023-05-05T09:49:33.822Z,97986.91
2023-05-05T09:52:00.354Z,97987.38
2023-05-05T09:54:30.003Z,97990.22
2023-05-05T09:56:56.903Z,97996.19
2023-05-05T09:59:23.619Z,97982.69
2023-05-05T10:01:50.779Z,97984.00
2023-05-05T10:04:24.389Z,97985.78
2023-05-05T10:06:51.152Z,97981.34
2023-05-05T10:09:17.635Z,97984.13
2023-05-05T10:11:46.257Z,97974.28
2023-05-05T10:14:16.202Z,97972.97
2023-05-05T10:16:50.866Z,97973.09
2023-05-05T10:19:21.598Z,97973.69
2023-05-05T10:21:53.154Z,97970.06
2023-05-05T10:24:22.768Z,97960.59
2023-05-05T10:26:49.271Z,97962.06
2023-05-05T10:29:39.356Z,97967.69
2023-05-05T10:32:37.079Z,97959.25
2023-05-05T10:35:03.113Z,97953.03
2023-05-05T10:37:29.850Z,97963.50
2023-05-05T10:39:59.441Z,97949.13
2023-05-05T10:42:26.021Z,97950.59
2023-05-05T10:44:53.439Z,97950.47
2023-05-05T10:47:20.272Z,97944.97
2023-05-05T10:49:57.381Z,97949.09
2023-05-05T10:52:41.187Z,97941.72
2023-05-05T10:55:12.440Z,97944.75
2023-05-05T10:57:43.692Z,97939.56
2023-05-05T11:00:10.922Z,97933.53
2023-05-05T11:02:37.526Z,97933.50
2023-05-05T11:05:17.984Z,97933.72
2023-05-05T11:07:45.968Z,97928.28
2023-05-05T11:10:13.496Z,97928.03
2023-05-05T11:12:52.322Z,97913.13
2023-05-05T11:15:28.055Z,97912.84
2023-05-05T11:17:58.127Z,97907.59
2023-05-05T11:20:40.037Z,97905.56
2023-05-05T11:23:06.586Z,97903.44
2023-05-05T11:25:36.473Z,97899.09
2023-05-05T11:28:09.742Z,97893.66
2023-05-05T11:30:36.684Z,97890.41
2023-05-05T11:33:26.081Z,97881.13
2023-05-05T11:35:58.322Z,97887.28
2023-05-05T11:38:43.431Z,97877.81
2023-05-05T11:41:09.753Z,97884.13
2023-05-05T11:43:36.547Z,97877.22
2023-05-05T11:46:12.876Z,97873.50
2023-05-05T11:48:49.196Z,97879.00
2023-05-05T11:51:16.502Z,97871.13
2023-05-05T11:53:43.908Z,97867.19
2023-05-05T11:56:11.031Z,97870.66
2023-05-05T11:58:37.836Z,97865.78
2023-05-05T12:01:08.104Z,97862.34
2023-05-05T12:03:37.428Z,97861.25
2023-05-05T12:06:07.680Z,97853.41
2023-05-05T12:08:37.863Z,97843.78
2023-05-05T12:11:10.234Z,97843.38
2023-05-05T12:13:36.746Z,97840.94
2023-05-05T12:16:10.056Z,97836.06
2023-05-05T12:18:36.786Z,97840.38
2023-05-05T12:21:18.752Z,97835.09
2023-05-05T12:23:45.452Z,97831.66
2023-05-05T12:26:32.146Z,97825.63
2023-05-05T12:28:59.170Z,97828.41
2023-05-05T12:31:34.823Z,97819.13
2023-05-05T12:34:02.531Z,97816.72
2023-05-05T12:36:30.570Z,97813.72
2023-05-05T12:38:57.200Z,97807.97
2023-05-05T12:41:23.744Z,97813.53
2023-05-05T12:43:54.976Z,97807.28
2023-05-05T12:46:22.171Z,97815.19
2023-05-05T12:49:06.545Z,97808.47
2023-05-05T12:51:33.678Z,97811.50
2023-05-05T12:54:07.528Z,97810.47
2023-05-05T12:56:34.818Z,97806.81
2023-05-05T12:59:11.809Z,97808.47
2023-05-05T13:02:00.123Z,97807.56
2023-05-05T13:04:27.426Z,97804.34
2023-05-05T13:07:14.063Z,97806.47
2023-05-05T13:09:40.708Z,97793.56
2023-05-05T13:12:11.024Z,97807.59
2023-05-05T13:14:37.917Z,97799.41
2023-05-05T13:17:04.515Z,97797.13
2023-05-05T13:19:31.063Z,97796.66
2023-05-05T13:21:57.983Z,97797.91
2023-05-05T13:24:37.886Z,97796.38
2023-05-05T13:27:09.303Z,97786.44
2023-05-05T13:29:35.925Z,97780.59
2023-05-05T13:32:02.415Z,97784.34
2023-05-05T13:34:28.923Z,97783.56
2023-05-05T13:36:55.875Z,97773.72
2023-05-05T13:39:22.362Z,97773.34
2023-05-05T13:41:48.849Z,97778.84
2023-05-05T13:44:15.577Z,97772.44
2023-05-05T13:46:42.677Z,97775.63
2023-05-05T13:49:09.307Z,97766.00
2023-05-05T13:51:37.076Z,97768.16
2023-05-05T13:54:03.916Z,97762.78
2023-05-05T13:56:30.480Z,97763.72
2023-05-05T13:58:57.266Z,97764.88
2023-05-05T14:01:23.819Z,97758.16
2023-05-05T14:03:50.509Z,97743.34
2023-05-05T14:06:17.105Z,97750.28
2023-05-05T14:08:43.608Z,97747.56
2023-05-05T14:11:10.174Z,97752.50
2023-05-05T14:13:36.739Z,97754.41
2023-05-05T14:16:03.230Z,97762.09
2023-05-05T14:18:29.744Z,97755.63
2023-05-05T14:20:56.421Z,97757.50
2023-05-05T14:23:22.899Z,97762.97
2023-05-05T14:25:49.428Z,97751.44
2023-05-05T14:28:16.161Z,97747.03
2023-05-05T14:30:42.696Z,97746.78
2023-05-05T14:33:09.180Z,97747.00
2023-05-05T14:35:35.738Z,97746.41
2023-05-05T14:38:02.234Z,97745.06
2023-05-05T14:40:30.204Z,97747.56
2023-05-05T14:42:57.709Z,97747.22
2023-05-05T14:45:24.254Z,97740.50
2023-05-05T14:47:50.883Z,97746.63
2023-05-05T14:50:17.389Z,97742.59
2023-05-05T14:52:44.462Z,97738.63
2023-05-05T14:55:11.506Z,97733.78
2023-05-05T14:57:38.963Z,97737.56
2023-05-05T15:00:06.980Z,97729.38
2023-05-05T15:02:33.735Z,97735.88
2023-05-05T15:05:00.372Z,97727.19
2023-05-05T15:07:28.510Z,97735.31
2023-05-05T15:09:56.471Z,97728.84
2023-05-05T15:12:23.171Z,97738.38
2023-05-05T15:14:49.644Z,97738.56
2023-05-05T15:17:16.089Z,97731.72
2023-05-05T15:19:42.627Z,97738.03
2023-05-05T15:22:09.192Z,97727.19
2023-05-05T15:24:35.731Z,97722.44
2023-05-05T15:27:02.875Z,97714.00
2023-05-05T15:29:29.359Z,97709.88
2023-05-05T15:31:55.964Z,97715.13
2023-05-05T15:34:22.568Z,97708.09
2023-05-05T15:36:49.058Z,97715.88
2023-05-05T15:39:15.654Z,97714.41
2023-05-05T15:41:42.370Z,97712.59
2023-05-05T15:44:11.856Z,97711.22
2023-05-05T15:46:39.157Z,97702.69
2023-05-05T15:49:06.084Z,97699.72
2023-05-05T15:51:32.663Z,97708.59
2023-05-05T15:53:59.558Z,97700.19
2023-05-05T15:56:27.563Z,97693.06
2023-05-05T15:58:54.323Z,97698.03
2023-05-05T16:01:21.047Z,97695.56
2023-05-05T16:03:47.640Z,97695.56
2023-05-05T16:06:14.163Z,97695.34
2023-05-05T16:08:40.760Z,97685.44
2023-05-05T16:11:07.291Z,97684.09
2023-05-05T16:13:33.832Z,97696.81
2023-05-05T16:16:00.308Z,97682.97
2023-05-05T16:18:26.880Z,97678.69
2023-05-05T16:20:53.359Z,97688.44
2023-05-05T16:23:19.804Z,97686.75
2023-05-05T16:25:46.409Z,97693.94
2023-05-05T16:28:12.944Z,97681.13
2023-05-05T16:30:39.888Z,97681.16
2023-05-05T16:33:06.808Z,97684.06
2023-05-05T16:35:33.396Z,97680.88
2023-05-05T16:37:59.865Z,97674.78
2023-05-05T16:40:26.403Z,97675.13
2023-05-05T16:42:52.910Z,97668.78
2023-05-05T16:45:19.393Z,97681.38
2023-05-05T16:47:46.237Z,97680.06
2023-05-05T16:50:12.848Z,97684.84
2023-05-05T16:52:39.305Z,97672.66
2023-05-05T16:55:06.260Z,97678.88
2023-05-05T16:57:33.102Z,97682.63
2023-05-05T16:59:59.698Z,97679.94
2023-05-05T17:02:26.376Z,97676.22
2023-05-05T17:04:52.979Z,97676.06
2023-05-05T17:07:19.696Z,97673.34
2023-05-05T17:09:46.210Z,97669.41
2023-05-05T17:12:12.678Z,97663.66
2023-05-05T17:14:39.589Z,97670.22
2023-05-05T17:17:06.198Z,97669.63
2023-05-05T17:19:32.734Z,97674.13
2023-05-05T17:21:59.269Z,97680.16
2023-05-05T17:24:25.810Z,97680.16
2023-05-05T17:26:52.404Z,97674.91
2023-05-05T17:29:20.219Z,97676.81
2023-05-05T17:31:46.863Z,97670.34
2023-05-05T17:34:13.434Z,97661.09
2023-05-05T17:36:39.911Z,97665.44
2023-05-05T17:39:06.812Z,97666.22
2023-05-05T17:41:33.319Z,97668.06
2023-05-05T17:43:59.789Z,97663.75
2023-05-05T17:46:26.462Z,97664.34
2023-05-05T17:48:53.056Z,97655.91
2023-05-05T17:51:19.632Z,97652.19
2023-05-05T17:53:46.205Z,97656.78
2023-05-05T17:56:12.831Z,97650.34
2023-05-05T17:58:39.298Z,97654.41
2023-05-05T18:01:06.371Z,97655.72
2023-05-05T18:03:33.103Z,97666.75
2023-05-05T18:05:59.812Z,97654.63
2023-05-05T18:08:26.962Z,97651.91
2023-05-05T18:10:54.118Z,97644.03
2023-05-05T18:13:21.396Z,97645.72
2023-05-05T18:15:48.102Z,97634.72
2023-05-05T18:18:14.699Z,97634.44
2023-05-05T18:20:41.211Z,97637.38
2023-05-05T18:23:07.732Z,97622.09
2023-05-05T18:25:34.188Z,97623.44
2023-05-05T18:28:00.664Z,97625.94
2023-05-05T18:30:27.313Z,97624.34
2023-05-05T18:32:53.833Z,97620.63
2023-05-05T18:35:21.325Z,97622.13
2023-05-05T18:37:47.910Z,97621.31
2023-05-05T18:40:14.430Z,97621.53
2023-05-05T18:42:41.684Z,97629.22
2023-05-05T18:45:10.548Z,97626.13
2023-05-05T18:47:37.519Z,97618.34
2023-05-05T18:50:04.494Z,97616.44
2023-05-05T18:52:31.075Z,97619.16
2023-05-05T18:54:57.521Z,97624.09
2023-05-05T18:57:24.079Z,97635.69
2023-05-05T18:59:50.582Z,97647.00
2023-05-05T19:02:17.831Z,97655.47
2023-05-05T19:04:44.411Z,97664.31
2023-05-05T19:07:14.471Z,97675.91
2023-05-05T19:09:47.573Z,97668.66
2023-05-05T19:12:14.355Z,97673.94
2023-05-05T19:14:41.004Z,97679.31
2023-05-05T19:17:07.488Z,97679.75
2023-05-05T19:19:34.083Z,97674.00
2023-05-05T19:22:02.952Z,97678.75
2023-05-05T19:24:30.266Z,97675.66
2023-05-05T19:26:56.905Z,97674.00
2023-05-05T19:29:23.387Z,97670.28
2023-05-05T19:31:49.884Z,97671.16
2023-05-05T19:34:16.402Z,97658.16
2023-05-05T19:36:42.893Z,97663.53
2023-05-05T19:39:09.352Z,97662.50
2023-05-05T19:41:35.871Z,97666.81
2023-05-05T19:44:02.939Z,97670.94
2023-05-05T19:46:29.557Z,97677.72
2023-05-05T19:48:56.229Z,97666.16
2023-05-05T19:51:22.837Z,97672.38
2023-05-05T19:53:50.134Z,97681.25
2023-05-05T19:56:16.959Z,97680.63
2023-05-05T19:58:56.306Z,97679.81
2023-05-05T20:01:22.962Z,97674.03
2023-05-05T20:03:49.780Z,97678.78
2023-05-05T20:06:16.356Z,97680.25
2023-05-05T20:08:43.227Z,97686.44
2023-05-05T20:11:09.690Z,97689.72
2023-05-05T20:13:38.110Z,97689.31
2023-05-05T20:16:06.006Z,97694.25
2023-05-05T20:18:32.641Z,97697.31
2023-05-05T20:20:59.285Z,97703.41
2023-05-05T20:23:26.474Z,97707.66
2023-05-05T20:25:53.437Z,97711.59
2023-05-05T20:28:19.950Z,97716.53
2023-05-05T20:30:46.605Z,97724.34
2023-05-05T20:33:13.100Z,97731.81
2023-05-05T20:35:39.620Z,97739.84
2023-05-05T20:38:06.150Z,97751.09
2023-05-05T20:40:33.554Z,97776.31
2023-05-05T20:43:00.221Z,97819.13
2023-05-05T20:45:26.786Z,97829.97
2023-05-05T20:47:53.352Z,97832.94
2023-05-05T20:50:22.634Z,97838.28
2023-05-05T20:52:49.605Z,97847.34
2023-05-05T20:55:16.199Z,97862.75
2023-05-05T20:57:42.692Z,97865.44
2023-05-05T21:00:09.675Z,97870.31
2023-05-05T21:02:37.065Z,97868.56
2023-05-05T21:05:04.208Z,97862.50
2023-05-05T21:07:33.153Z,97864.31
2023-05-05T21:10:00.720Z,97867.34
2023-05-05T21:12:27.963Z,97868.31
2023-05-05T21:14:56.944Z,97867.03
2023-05-05T21:17:23.433Z,97870.13
2023-05-05T21:19:49.949Z,97860.81
2023-05-05T21:22:16.436Z,97857.13
2023-05-05T21:24:42.903Z,97851.31
2023-05-05T21:27:09.408Z,97860.38
2023-05-05T21:29:37.791Z,97857.91
2023-05-05T21:32:08.002Z,97851.28
2023-05-05T21:34:34.548Z,97860.22
2023-05-05T21:37:01.054Z,97856.47
2023-05-05T21:39:28.221Z,97857.50
2023-05-05T21:41:54.706Z,97857.28
2023-05-05T21:44:21.283Z,97854.59
2023-05-05T21:46:47.985Z,97857.94
2023-05-05T21:49:15.180Z,97846.78
2023-05-05T21:51:43.377Z,97850.28
2023-05-05T21:54:09.946Z,97847.00
2023-05-05T21:56:36.741Z,97845.97
2023-05-05T21:59:03.929Z,97842.38
2023-05-05T22:01:30.461Z,97846.50
2023-05-05T22:03:57.026Z,97847.69
2023-05-05T22:06:23.605Z,97844.81
2023-05-05T22:08:50.250Z,97850.16
2023-05-05T22:11:18.353Z,97844.56
2023-05-05T22:13:46.192Z,97848.88
2023-05-05T22:16:12.820Z,97849.22
2023-05-05T22:18:39.355Z,97847.38
2023-05-05T22:21:06.095Z,97845.91
2023-05-05T22:23:32.633Z,97845.13
2023-05-05T22:25:59.084Z,97850.94
2023-05-05T22:28:26.780Z,97860.63
2023-05-05T22:30:53.251Z,97864.56
2023-05-05T22:33:19.729Z,97867.03
2023-05-05T22:35:46.243Z,97862.09
2023-05-05T22:38:12.722Z,97859.59
2023-05-05T22:40:39.199Z,97858.09
2023-05-05T22:43:05.741Z,97863.19
2023-05-05T22:45:32.401Z,97856.56
2023-05-05T22:47:58.997Z,97855.78
2023-05-05T22:50:25.687Z,97853.09
2023-05-05T22:52:52.192Z,97850.44
2023-05-05T22:55:18.698Z,97860.00
2023-05-05T22:57:45.501Z,97856.28
2023-05-05T23:00:12.435Z,97853.34
2023-05-05T23:02:38.986Z,97846.72
2023-05-05T23:05:05.960Z,97852.06
2023-05-05T23:07:32.473Z,97855.41
2023-05-05T23:09:58.944Z,97858.09
2023-05-05T23:12:25.591Z,97859.47
2023-05-05T23:14:52.408Z,97861.13
2023-05-05T23:17:19.531Z,97867.72
2023-05-05T23:19:48.933Z,97862.53
2023-05-05T23:22:15.600Z,97864.38
2023-05-05T23:24:42.103Z,97864.84
2023-05-05T23:27:08.652Z,97868.13
2023-05-05T23:32:10.403Z,97865.28
2023-05-05T23:34:36.858Z,97867.34
2023-05-05T23:37:05.396Z,97864.88
2023-05-05T23:39:34.245Z,97867.81
2023-05-05T23:42:00.684Z,97869.88
2023-05-05T23:44:27.653Z,97867.81
2023-05-05T23:46:54.496Z,97869.28
2023-05-05T23:49:21.225Z,97878.06
2023-05-05T23:51:47.685Z,97883.41
2023-05-05T23:54:14.243Z,97890.81
2023-05-05T23:56:41.094Z,97883.81
2023-05-05T23:59:07.594Z,97883.16
